sensor_id;sensor_type;location;lat;lon;timestamp;pressure;altitude;pressure_sealevel;temperature;humidity
75420;BME280;63998;52.488;13.428;2024-02-26T11:38:22;100308.06;;;11.14;69.22
75420;BME280;63998;52.488;13.428;2024-02-26T11:40:50;100313.13;;;11.36;69.58
75420;BME280;63998;52.488;13.428;2024-02-26T11:43:15;100300.91;;;11.44;67.90
75420;BME280;63998;52.488;13.428;2024-02-26T11:48:16;100308.44;;;11.76;66.42
75420;BME280;63998;52.488;13.428;2024-02-26T11:50:54;100300.63;;;11.74;65.01
75420;BME280;63998;52.488;13.428;2024-02-26T11:53:30;100302.38;;;11.75;64.83
75420;BME280;63998;52.488;13.428;2024-02-26T11:59:13;100296.84;;;12.06;63.11
75420;BME280;63998;52.488;13.428;2024-02-26T12:01:51;100305.56;;;12.02;60.75
75420;BME280;63998;52.488;13.428;2024-02-26T12:04:27;100310.69;;;12.11;59.73
75420;BME280;63998;52.488;13.428;2024-02-26T12:06:56;100300.00;;;12.32;59.24
75420;BME280;63998;52.488;13.428;2024-02-26T12:09:37;100306.81;;;12.44;57.12
75420;BME280;63998;52.488;13.428;2024-02-26T12:12:10;100304.22;;;12.44;56.79
75420;BME280;63998;52.488;13.428;2024-02-26T12:14:40;100297.84;;;12.65;58.19
75420;BME280;63998;52.488;13.428;2024-02-26T12:17:07;100296.88;;;12.73;58.48
75420;BME280;63998;52.488;13.428;2024-02-26T12:19:43;100287.09;;;12.86;58.01
75420;BME280;63998;52.488;13.428;2024-02-26T12:22:12;100287.94;;;12.88;56.18
75420;BME280;63998;52.488;13.428;2024-02-26T12:24:38;100295.84;;;12.85;54.36
75420;BME280;63998;52.488;13.428;2024-02-26T12:27:03;100299.38;;;12.81;52.65
75420;BME280;63998;52.488;13.428;2024-02-26T12:29:28;100297.47;;;12.92;53.65
75420;BME280;63998;52.488;13.428;2024-02-26T12:31:54;100294.00;;;12.90;52.07
75420;BME280;63998;52.488;13.428;2024-02-26T12:34:19;100301.69;;;12.99;51.32
75420;BME280;63998;52.488;13.428;2024-02-26T12:36:45;100308.66;;;12.99;52.18
75420;BME280;63998;52.488;13.428;2024-02-26T12:39:10;100300.69;;;13.09;52.68
75420;BME280;63998;52.488;13.428;2024-02-26T12:41:37;100297.47;;;12.92;50.71
75420;BME280;63998;52.488;13.428;2024-02-26T12:44:03;100310.19;;;13.12;54.30
75420;BME280;63998;52.488;13.428;2024-02-26T12:46:28;100316.00;;;13.32;53.72
75420;BME280;63998;52.488;13.428;2024-02-26T12:48:58;100318.38;;;13.47;55.07
75420;BME280;63998;52.488;13.428;2024-02-26T12:51:25;100308.06;;;13.38;48.15
75420;BME280;63998;52.488;13.428;2024-02-26T12:53:51;100300.00;;;13.52;47.64
75420;BME280;63998;52.488;13.428;2024-02-26T12:56:17;100300.44;;;13.24;46.62
75420;BME280;63998;52.488;13.428;2024-02-26T12:58:44;100299.53;;;13.28;47.31
75420;BME280;63998;52.488;13.428;2024-02-26T13:01:15;100302.25;;;13.22;45.53
75420;BME280;63998;52.488;13.428;2024-02-26T13:03:41;100299.47;;;13.33;45.87
75420;BME280;63998;52.488;13.428;2024-02-26T13:06:07;100302.19;;;13.25;45.17
75420;BME280;63998;52.488;13.428;2024-02-26T13:08:32;100288.16;;;13.33;46.23
75420;BME280;63998;52.488;13.428;2024-02-26T13:11:01;100298.81;;;13.20;48.23
75420;BME280;63998;52.488;13.428;2024-02-26T13:13:26;100303.69;;;13.39;51.83
75420;BME280;63998;52.488;13.428;2024-02-26T13:16:02;100301.94;;;13.41;52.82
75420;BME280;63998;52.488;13.428;2024-02-26T13:18:29;100296.84;;;13.35;53.21
75420;BME280;63998;52.488;13.428;2024-02-26T13:21:07;100305.53;;;13.34;55.22
75420;BME280;63998;52.488;13.428;2024-02-26T13:23:33;100295.13;;;13.34;55.36
75420;BME280;63998;52.488;13.428;2024-02-26T13:25:58;100312.69;;;13.22;54.94
75420;BME280;63998;52.488;13.428;2024-02-26T13:28:24;100306.69;;;13.13;56.51
75420;BME280;63998;52.488;13.428;2024-02-26T13:30:53;100314.53;;;13.14;55.52
75420;BME280;63998;52.488;13.428;2024-02-26T13:33:21;100308.38;;;13.20;55.05
75420;BME280;63998;52.488;13.428;2024-02-26T13:35:47;100309.63;;;12.93;53.47
75420;BME280;63998;52.488;13.428;2024-02-26T13:38:12;100311.03;;;13.14;56.45
75420;BME280;63998;52.488;13.428;2024-02-26T13:40:38;100311.97;;;13.10;55.39
75420;BME280;63998;52.488;13.428;2024-02-26T13:43:04;100312.84;;;13.10;54.81
75420;BME280;63998;52.488;13.428;2024-02-26T13:45:30;100311.22;;;13.00;54.54
75420;BME280;63998;52.488;13.428;2024-02-26T13:48:01;100321.97;;;12.79;54.39
75420;BME280;63998;52.488;13.428;2024-02-26T13:50:27;100322.97;;;12.70;55.86
75420;BME280;63998;52.488;13.428;2024-02-26T13:52:52;100320.41;;;12.66;56.36
75420;BME280;63998;52.488;13.428;2024-02-26T13:55:20;100316.34;;;12.46;55.50
75420;BME280;63998;52.488;13.428;2024-02-26T13:57:47;100330.41;;;12.32;56.69
75420;BME280;63998;52.488;13.428;2024-02-26T14:00:13;100320.72;;;12.41;57.32
75420;BME280;63998;52.488;13.428;2024-02-26T14:02:39;100324.31;;;12.34;56.69
75420;BME280;63998;52.488;13.428;2024-02-26T14:05:04;100337.41;;;12.27;56.51
75420;BME280;63998;52.488;13.428;2024-02-26T14:07:30;100331.31;;;12.26;58.19
75420;BME280;63998;52.488;13.428;2024-02-26T14:09:57;100340.09;;;12.19;57.59
75420;BME280;63998;52.488;13.428;2024-02-26T14:12:23;100348.69;;;12.24;57.48
75420;BME280;63998;52.488;13.428;2024-02-26T14:14:48;100356.47;;;12.27;58.92
75420;BME280;63998;52.488;13.428;2024-02-26T14:17:14;100364.59;;;12.00;57.97
75420;BME280;63998;52.488;13.428;2024-02-26T14:19:40;100367.31;;;11.87;59.55
75420;BME280;63998;52.488;13.428;2024-02-26T14:22:10;100371.75;;;11.76;59.44
75420;BME280;63998;52.488;13.428;2024-02-26T14:24:36;100373.34;;;11.90;60.27
75420;BME280;63998;52.488;13.428;2024-02-26T14:27:02;100382.03;;;11.92;59.55
75420;BME280;63998;52.488;13.428;2024-02-26T14:29:27;100380.19;;;12.00;60.69
75420;BME280;63998;52.488;13.428;2024-02-26T14:31:53;100380.28;;;11.94;59.82
75420;BME280;63998;52.488;13.428;2024-02-26T14:34:18;100381.16;;;11.93;60.05
75420;BME280;63998;52.488;13.428;2024-02-26T14:36:44;100399.53;;;11.71;60.59
75420;BME280;63998;52.488;13.428;2024-02-26T14:39:09;100389.03;;;11.86;62.82
75420;BME280;63998;52.488;13.428;2024-02-26T14:41:38;100389.06;;;11.79;61.14
75420;BME280;63998;52.488;13.428;2024-02-26T14:44:03;100402.06;;;11.85;60.86
75420;BME280;63998;52.488;13.428;2024-02-26T14:46:28;100399.47;;;11.83;60.85
75420;BME280;63998;52.488;13.428;2024-02-26T14:48:54;100402.88;;;11.87;62.05
75420;BME280;63998;52.488;13.428;2024-02-26T14:51:22;100407.41;;;11.61;61.60
75420;BME280;63998;52.488;13.428;2024-02-26T14:53:47;100403.94;;;11.62;61.71
75420;BME280;63998;52.488;13.428;2024-02-26T14:56:13;100409.94;;;11.68;62.04
75420;BME280;63998;52.488;13.428;2024-02-26T14:58:38;100419.56;;;11.59;62.34
75420;BME280;63998;52.488;13.428;2024-02-26T15:01:04;100423.91;;;11.61;62.20
75420;BME280;63998;52.488;13.428;2024-02-26T15:03:29;100425.63;;;11.59;63.30
75420;BME280;63998;52.488;13.428;2024-02-26T15:05:54;100427.28;;;11.69;63.06
75420;BME280;63998;52.488;13.428;2024-02-26T15:08:20;100418.63;;;11.70;62.22
75420;BME280;63998;52.488;13.428;2024-02-26T15:10:45;100426.41;;;11.73;62.99
75420;BME280;63998;52.488;13.428;2024-02-26T15:13:14;100426.44;;;11.64;62.09
75420;BME280;63998;52.488;13.428;2024-02-26T15:15:40;100423.03;;;11.61;63.26
75420;BME280;63998;52.488;13.428;2024-02-26T15:18:06;100427.28;;;11.69;64.15
75420;BME280;63998;52.488;13.428;2024-02-26T15:20:33;100425.75;;;11.44;63.25
75420;BME280;63998;52.488;13.428;2024-02-26T15:22:58;100434.34;;;11.52;63.29
75420;BME280;63998;52.488;13.428;2024-02-26T15:25:24;100428.34;;;11.44;63.30
75420;BME280;63998;52.488;13.428;2024-02-26T15:27:49;100434.41;;;11.46;64.33
75420;BME280;63998;52.488;13.428;2024-02-26T15:30:14;100435.19;;;11.54;65.25
75420;BME280;63998;52.488;13.428;2024-02-26T15:32:41;100430.84;;;11.59;65.24
75420;BME280;63998;52.488;13.428;2024-02-26T15:35:09;100437.00;;;11.41;64.77
75420;BME280;63998;52.488;13.428;2024-02-26T15:37:34;100439.69;;;11.31;65.88
75420;BME280;63998;52.488;13.428;2024-02-26T15:39:59;100449.19;;;11.36;65.68
75420;BME280;63998;52.488;13.428;2024-02-26T15:42:25;100456.94;;;11.44;66.00
75420;BME280;63998;52.488;13.428;2024-02-26T15:44:50;100456.88;;;11.50;66.01
75420;BME280;63998;52.488;13.428;2024-02-26T15:47:16;100453.47;;;11.42;66.04
75420;BME280;63998;52.488;13.428;2024-02-26T15:49:41;100464.75;;;11.47;66.57
75420;BME280;63998;52.488;13.428;2024-02-26T15:52:06;100464.88;;;11.20;67.30
75420;BME280;63998;52.488;13.428;2024-02-26T15:54:32;100459.69;;;11.21;67.87
75420;BME280;63998;52.488;13.428;2024-02-26T15:56:57;100464.88;;;11.24;67.79
75420;BME280;63998;52.488;13.428;2024-02-26T15:59:23;100472.69;;;11.20;69.45
75420;BME280;63998;52.488;13.428;2024-02-26T16:01:48;100471.88;;;11.02;70.06
75420;BME280;63998;52.488;13.428;2024-02-26T16:04:14;100473.66;;;10.97;70.70
75420;BME280;63998;52.488;13.428;2024-02-26T16:06:47;100472.75;;;11.01;70.75
75420;BME280;63998;52.488;13.428;2024-02-26T16:09:13;100480.53;;;11.01;71.59
75420;BME280;63998;52.488;13.428;2024-02-26T16:11:39;100487.53;;;10.96;72.21
75420;BME280;63998;52.488;13.428;2024-02-26T16:14:29;100484.91;;;10.96;73.58
75420;BME280;63998;52.488;13.428;2024-02-26T16:17:01;100484.09;;;10.85;74.05
75420;BME280;63998;52.488;13.428;2024-02-26T16:19:29;100486.72;;;10.70;74.51
75420;BME280;63998;52.488;13.428;2024-02-26T16:21:54;100485.00;;;10.75;74.87
75420;BME280;63998;52.488;13.428;2024-02-26T16:24:20;100486.69;;;10.76;75.54
75420;BME280;63998;52.488;13.428;2024-02-26T16:26:45;100489.34;;;10.74;75.92
75420;BME280;63998;52.488;13.428;2024-02-26T16:29:10;100489.34;;;10.68;77.07
75420;BME280;63998;52.488;13.428;2024-02-26T16:31:36;100495.38;;;10.72;77.54
75420;BME280;63998;52.488;13.428;2024-02-26T16:34:01;100491.94;;;10.64;77.33
75420;BME280;63998;52.488;13.428;2024-02-26T16:36:26;100495.38;;;10.69;77.16
75420;BME280;63998;52.488;13.428;2024-02-26T16:38:52;100498.84;;;10.71;77.98
75420;BME280;63998;52.488;13.428;2024-02-26T16:41:17;100496.25;;;10.71;78.53
75420;BME280;63998;52.488;13.428;2024-02-26T16:43:42;100499.72;;;10.71;79.19
75420;BME280;63998;52.488;13.428;2024-02-26T16:46:08;100500.63;;;10.61;79.80
75420;BME280;63998;52.488;13.428;2024-02-26T16:48:34;100505.78;;;10.69;79.54
75420;BME280;63998;52.488;13.428;2024-02-26T16:50:59;100501.47;;;10.71;79.24
75420;BME280;63998;52.488;13.428;2024-02-26T16:53:25;100517.91;;;10.67;79.74
75420;BME280;63998;52.488;13.428;2024-02-26T16:55:50;100511.03;;;10.48;80.72
75420;BME280;63998;52.488;13.428;2024-02-26T16:58:15;100509.28;;;10.56;81.16
75420;BME280;63998;52.488;13.428;2024-02-26T17:00:41;100515.34;;;10.58;80.65
75420;BME280;63998;52.488;13.428;2024-02-26T17:03:06;100509.28;;;10.53;81.06
75420;BME280;63998;52.488;13.428;2024-02-26T17:05:31;100509.28;;;10.59;80.77
75420;BME280;63998;52.488;13.428;2024-02-26T17:07:57;100512.72;;;10.55;80.41
75420;BME280;63998;52.488;13.428;2024-02-26T17:10:22;100521.38;;;10.57;80.96
75420;BME280;63998;52.488;13.428;2024-02-26T17:12:47;100517.94;;;10.61;80.04
75420;BME280;63998;52.488;13.428;2024-02-26T17:15:12;100518.78;;;10.60;80.18
75420;BME280;63998;52.488;13.428;2024-02-26T17:17:38;100524.84;;;10.56;79.47
75420;BME280;63998;52.488;13.428;2024-02-26T17:20:04;100528.31;;;10.52;80.00
75420;BME280;63998;52.488;13.428;2024-02-26T17:22:29;100528.31;;;10.55;79.43
75420;BME280;63998;52.488;13.428;2024-02-26T17:24:55;100537.84;;;10.51;78.95
75420;BME280;63998;52.488;13.428;2024-02-26T17:27:20;100531.81;;;10.51;78.88
75420;BME280;63998;52.488;13.428;2024-02-26T17:29:46;100545.66;;;10.50;78.57
75420;BME280;63998;52.488;13.428;2024-02-26T17:32:12;100539.59;;;10.44;78.52
75420;BME280;63998;52.488;13.428;2024-02-26T21:07:52;100767.09;;;8.09;93.48
75420;BME280;63998;52.488;13.428;2024-02-26T21:18:19;100786.09;;;8.13;93.31
75420;BME280;63998;52.488;13.428;2024-02-26T22:38:14;100848.19;;;7.55;95.54
75420;BME280;63998;52.488;13.428;2024-02-26T22:41:28;100850.78;;;7.55;95.65
75420;BME280;63998;52.488;13.428;2024-02-26T22:58:16;100848.97;;;7.48;95.88
75420;BME280;63998;52.488;13.428;2024-02-26T23:34:32;100871.88;;;7.30;96.52
75420;BME280;63998;52.488;13.428;2024-02-26T23:36:57;100869.22;;;7.24;96.91
75420;BME280;63998;52.488;13.428;2024-02-26T23:39:23;100874.38;;;7.24;97.17
75420;BME280;63998;52.488;13.428;2024-02-26T23:41:48;100881.38;;;7.31;97.10
75420;BME280;63998;52.488;13.428;2024-02-26T23:44:13;100879.50;;;7.21;97.13
75420;BME280;63998;52.488;13.428;2024-02-26T23:46:39;100881.34;;;7.28;98.70
75420;BME280;63998;52.488;13.428;2024-02-26T23:49:04;100881.16;;;7.19;97.29
75420;BME280;63998;52.488;13.428;2024-02-26T23:51:31;100876.66;;;7.07;97.20
75420;BME280;63998;52.488;13.428;2024-02-26T23:53:56;100881.00;;;7.10;98.10
75420;BME280;63998;52.488;13.428;2024-02-26T23:56:22;100879.03;;;6.97;97.91
75420;BME280;63998;52.488;13.428;2024-02-26T23:58:47;100883.63;;;7.11;100.00
